Angmagssalik, Greenland
Current Conditions -  °F | °C
As of 7:50 AM on Monday 20 Oct 2014 (Local Time) from BGKK Reporting Station
Broken Clouds Broken Clouds  
Wind Chill: 24°   Ceiling: 3800
Heat Index: 30°   Visibility: 6mi
Dew Point: 25°   Wind: 6mph
Humidity: 80%   Direction: 250°WSW
Pressure: 29.53"   Gusts: NA
Location:  65.61°N, 37.68°W
Report Text: BGKK 200950Z 25005KT 9999 SCT014 BKN038 M01/M04 Q1000
Loading
Personal Weather Stations






























Interactive Weather Map
Tropical Storm Tracking
New forecast layout! Learn more

10-Day Weather Forecast

Advertisements
Track Severe Weather on mobile